sensor_id;sensor_type;location;lat;lon;timestamp;pressure;altitude;pressure_sealevel;temperature;humidity
27358;BME280;14831;50.474;7.616;2022-12-29T00:03:02;97230;;;9.6;82.8
27358;BME280;14831;50.474;7.616;2022-12-29T00:08:02;97230;;;9.7;82.9
27358;BME280;14831;50.474;7.616;2022-12-29T00:13:02;97240;;;9.6;83.7
27358;BME280;14831;50.474;7.616;2022-12-29T00:18:02;97230;;;9.6;84.2
27358;BME280;14831;50.474;7.616;2022-12-29T00:23:02;97220;;;9.5;85.4
27358;BME280;14831;50.474;7.616;2022-12-29T00:28:02;97220;;;9.5;85.7
27358;BME280;14831;50.474;7.616;2022-12-29T00:33:07;97200;;;9.5;85.9
27358;BME280;14831;50.474;7.616;2022-12-29T00:38:03;97190;;;9.5;85.4
27358;BME280;14831;50.474;7.616;2022-12-29T00:43:02;97180;;;9.5;85.5
27358;BME280;14831;50.474;7.616;2022-12-29T00:48:02;97180;;;9.5;85.6
27358;BME280;14831;50.474;7.616;2022-12-29T00:53:02;97170;;;9.5;85.6
27358;BME280;14831;50.474;7.616;2022-12-29T00:58:02;97160;;;9.5;85.6
27358;BME280;14831;50.474;7.616;2022-12-29T01:03:02;97150;;;9.5;86.1
27358;BME280;14831;50.474;7.616;2022-12-29T01:08:02;97150;;;9.5;85.8
27358;BME280;14831;50.474;7.616;2022-12-29T01:13:02;97150;;;9.5;86.1
27358;BME280;14831;50.474;7.616;2022-12-29T01:18:02;97150;;;9.5;86.3
27358;BME280;14831;50.474;7.616;2022-12-29T01:23:02;97150;;;9.5;86.3
27358;BME280;14831;50.474;7.616;2022-12-29T01:28:02;97150;;;9.5;86.7
27358;BME280;14831;50.474;7.616;2022-12-29T01:33:02;97160;;;9.5;87.3
27358;BME280;14831;50.474;7.616;2022-12-29T01:38:02;97170;;;9.4;88.6
27358;BME280;14831;50.474;7.616;2022-12-29T01:43:02;97150;;;9.3;88.8
27358;BME280;14831;50.474;7.616;2022-12-29T01:48:02;97130;;;9.4;87.8
27358;BME280;14831;50.474;7.616;2022-12-29T01:53:03;97120;;;9.4;87.7
27358;BME280;14831;50.474;7.616;2022-12-29T01:58:02;97130;;;9.4;87.6
27358;BME280;14831;50.474;7.616;2022-12-29T02:03:02;97120;;;9.4;87.2
27358;BME280;14831;50.474;7.616;2022-12-29T02:08:02;97130;;;9.4;87.2
27358;BME280;14831;50.474;7.616;2022-12-29T02:13:02;97120;;;9.4;87.3
27358;BME280;14831;50.474;7.616;2022-12-29T02:18:06;97130;;;9.4;87.3
27358;BME280;14831;50.474;7.616;2022-12-29T02:23:07;97120;;;9.5;86.8
27358;BME280;14831;50.474;7.616;2022-12-29T02:28:09;97120;;;9.4;87.6
27358;BME280;14831;50.474;7.616;2022-12-29T02:33:03;97120;;;9.4;87.9
27358;BME280;14831;50.474;7.616;2022-12-29T02:38:04;97120;;;9.4;88.1
27358;BME280;14831;50.474;7.616;2022-12-29T02:43:03;97110;;;9.4;88.2
27358;BME280;14831;50.474;7.616;2022-12-29T02:48:03;97100;;;9.3;88.4
27358;BME280;14831;50.474;7.616;2022-12-29T02:53:02;97090;;;9.4;87.5
27358;BME280;14831;50.474;7.616;2022-12-29T02:58:08;97090;;;9.5;87.2
27358;BME280;14831;50.474;7.616;2022-12-29T03:03:06;97070;;;9.5;87.0
27358;BME280;14831;50.474;7.616;2022-12-29T03:08:04;97070;;;9.5;87.0
27358;BME280;14831;50.474;7.616;2022-12-29T03:13:02;97070;;;9.5;88.5
27358;BME280;14831;50.474;7.616;2022-12-29T03:18:04;97080;;;9.3;90.0
27358;BME280;14831;50.474;7.616;2022-12-29T03:23:02;97070;;;9.2;91.4
27358;BME280;14831;50.474;7.616;2022-12-29T03:28:03;97060;;;9.1;91.8
27358;BME280;14831;50.474;7.616;2022-12-29T03:33:03;97060;;;9.1;91.5
27358;BME280;14831;50.474;7.616;2022-12-29T03:38:04;97060;;;9.1;90.7
27358;BME280;14831;50.474;7.616;2022-12-29T03:43:02;97050;;;9.2;90.0
27358;BME280;14831;50.474;7.616;2022-12-29T03:48:02;97050;;;9.3;89.1
27358;BME280;14831;50.474;7.616;2022-12-29T03:53:02;97050;;;9.3;88.8
27358;BME280;14831;50.474;7.616;2022-12-29T03:58:02;97050;;;9.3;88.6
27358;BME280;14831;50.474;7.616;2022-12-29T04:03:02;97050;;;9.2;88.7
27358;BME280;14831;50.474;7.616;2022-12-29T04:08:02;97050;;;9.3;88.5
27358;BME280;14831;50.474;7.616;2022-12-29T04:13:02;97050;;;9.3;88.4
27358;BME280;14831;50.474;7.616;2022-12-29T04:18:02;97050;;;9.3;87.7
27358;BME280;14831;50.474;7.616;2022-12-29T04:23:02;97050;;;9.3;87.8
27358;BME280;14831;50.474;7.616;2022-12-29T04:28:02;97060;;;9.3;88.2
27358;BME280;14831;50.474;7.616;2022-12-29T04:33:02;97060;;;9.3;88.7
27358;BME280;14831;50.474;7.616;2022-12-29T04:38:02;97060;;;9.2;89.4
27358;BME280;14831;50.474;7.616;2022-12-29T04:43:02;97040;;;9.1;90.6
27358;BME280;14831;50.474;7.616;2022-12-29T04:48:02;97040;;;9.1;90.9
27358;BME280;14831;50.474;7.616;2022-12-29T04:53:02;97040;;;9.0;91.4
27358;BME280;14831;50.474;7.616;2022-12-29T04:58:02;97060;;;9.0;91.3
27358;BME280;14831;50.474;7.616;2022-12-29T05:03:02;97050;;;9.0;91.3
27358;BME280;14831;50.474;7.616;2022-12-29T05:08:02;97020;;;9.0;90.7
27358;BME280;14831;50.474;7.616;2022-12-29T05:13:02;97050;;;9.0;90.3
27358;BME280;14831;50.474;7.616;2022-12-29T05:18:02;97030;;;9.1;89.4
27358;BME280;14831;50.474;7.616;2022-12-29T05:23:02;97040;;;9.2;89.0
27358;BME280;14831;50.474;7.616;2022-12-29T05:28:02;97040;;;9.2;88.4
27358;BME280;14831;50.474;7.616;2022-12-29T05:33:02;97040;;;9.3;87.8
27358;BME280;14831;50.474;7.616;2022-12-29T05:38:02;97030;;;9.3;87.5
27358;BME280;14831;50.474;7.616;2022-12-29T05:43:02;97050;;;9.4;87.2
27358;BME280;14831;50.474;7.616;2022-12-29T05:48:02;97040;;;9.4;87.2
27358;BME280;14831;50.474;7.616;2022-12-29T05:53:02;97050;;;9.3;87.5
27358;BME280;14831;50.474;7.616;2022-12-29T05:58:02;97030;;;9.4;87.7
27358;BME280;14831;50.474;7.616;2022-12-29T06:03:02;97030;;;9.3;87.7
27358;BME280;14831;50.474;7.616;2022-12-29T06:08:02;97030;;;9.3;87.5
27358;BME280;14831;50.474;7.616;2022-12-29T06:13:02;97050;;;9.4;86.9
27358;BME280;14831;50.474;7.616;2022-12-29T06:18:02;97040;;;9.5;86.6
27358;BME280;14831;50.474;7.616;2022-12-29T06:23:02;97020;;;9.4;87.1
27358;BME280;14831;50.474;7.616;2022-12-29T06:28:02;97030;;;9.5;86.8
27358;BME280;14831;50.474;7.616;2022-12-29T06:33:02;97030;;;9.4;86.9
27358;BME280;14831;50.474;7.616;2022-12-29T06:38:02;97030;;;9.5;86.4
27358;BME280;14831;50.474;7.616;2022-12-29T06:43:02;97020;;;9.5;86.8
27358;BME280;14831;50.474;7.616;2022-12-29T06:48:02;97010;;;9.5;86.5
27358;BME280;14831;50.474;7.616;2022-12-29T06:53:02;97000;;;9.5;86.3
27358;BME280;14831;50.474;7.616;2022-12-29T06:58:02;97010;;;9.6;86.0
27358;BME280;14831;50.474;7.616;2022-12-29T07:03:02;97030;;;9.6;86.5
27358;BME280;14831;50.474;7.616;2022-12-29T07:08:02;97020;;;9.5;86.9
27358;BME280;14831;50.474;7.616;2022-12-29T07:13:02;97030;;;9.6;86.7
27358;BME280;14831;50.474;7.616;2022-12-29T07:18:02;97040;;;9.5;87.2
27358;BME280;14831;50.474;7.616;2022-12-29T07:23:02;97030;;;9.5;88.3
27358;BME280;14831;50.474;7.616;2022-12-29T07:28:02;97050;;;9.3;90.2
27358;BME280;14831;50.474;7.616;2022-12-29T07:33:02;97070;;;9.1;92.1
27358;BME280;14831;50.474;7.616;2022-12-29T07:38:02;97080;;;9.0;93.0
27358;BME280;14831;50.474;7.616;2022-12-29T07:43:02;97090;;;8.9;94.1
27358;BME280;14831;50.474;7.616;2022-12-29T07:48:02;97100;;;8.8;94.3
27358;BME280;14831;50.474;7.616;2022-12-29T07:53:02;97120;;;8.8;94.7
27358;BME280;14831;50.474;7.616;2022-12-29T07:58:02;97090;;;8.7;94.5
27358;BME280;14831;50.474;7.616;2022-12-29T08:03:02;97100;;;8.6;94.2
27358;BME280;14831;50.474;7.616;2022-12-29T08:08:02;97120;;;8.6;92.6
27358;BME280;14831;50.474;7.616;2022-12-29T08:13:02;97140;;;8.6;91.7
27358;BME280;14831;50.474;7.616;2022-12-29T08:18:02;97150;;;8.7;89.7
27358;BME280;14831;50.474;7.616;2022-12-29T08:23:02;97150;;;8.7;89.0
27358;BME280;14831;50.474;7.616;2022-12-29T08:28:02;97170;;;8.7;88.2
27358;BME280;14831;50.474;7.616;2022-12-29T08:33:02;97180;;;8.8;87.1
27358;BME280;14831;50.474;7.616;2022-12-29T08:38:02;97170;;;8.9;84.7
27358;BME280;14831;50.474;7.616;2022-12-29T08:43:02;97160;;;8.9;82.8
27358;BME280;14831;50.474;7.616;2022-12-29T08:48:02;97180;;;9.0;81.7
27358;BME280;14831;50.474;7.616;2022-12-29T08:53:02;97180;;;9.0;82.5
27358;BME280;14831;50.474;7.616;2022-12-29T08:58:02;97190;;;9.0;81.8
27358;BME280;14831;50.474;7.616;2022-12-29T09:03:02;97180;;;9.1;80.4
27358;BME280;14831;50.474;7.616;2022-12-29T09:08:02;97180;;;9.1;79.7
27358;BME280;14831;50.474;7.616;2022-12-29T09:13:02;97180;;;9.2;79.1
27358;BME280;14831;50.474;7.616;2022-12-29T09:18:02;97180;;;9.3;78.1
27358;BME280;14831;50.474;7.616;2022-12-29T09:23:02;97180;;;9.3;79.1
27358;BME280;14831;50.474;7.616;2022-12-29T09:28:02;97180;;;9.3;78.8
27358;BME280;14831;50.474;7.616;2022-12-29T09:33:02;97200;;;9.4;78.7
27358;BME280;14831;50.474;7.616;2022-12-29T09:38:02;97200;;;9.4;79.2
27358;BME280;14831;50.474;7.616;2022-12-29T09:43:05;97210;;;9.3;79.7
27358;BME280;14831;50.474;7.616;2022-12-29T09:48:03;97220;;;9.3;80.5
27358;BME280;14831;50.474;7.616;2022-12-29T09:53:03;97220;;;9.2;80.5
27358;BME280;14831;50.474;7.616;2022-12-29T09:58:02;97220;;;9.2;79.7
27358;BME280;14831;50.474;7.616;2022-12-29T10:03:02;97210;;;9.3;80.0
27358;BME280;14831;50.474;7.616;2022-12-29T10:08:06;97210;;;9.3;80.0
27358;BME280;14831;50.474;7.616;2022-12-29T10:13:06;97220;;;9.4;79.2
27358;BME280;14831;50.474;7.616;2022-12-29T10:18:03;97200;;;9.5;77.9
27358;BME280;14831;50.474;7.616;2022-12-29T10:23:05;97180;;;9.6;78.4
27358;BME280;14831;50.474;7.616;2022-12-29T10:28:03;97160;;;9.9;77.2
27358;BME280;14831;50.474;7.616;2022-12-29T10:33:02;97200;;;10.2;76.7
27358;BME280;14831;50.474;7.616;2022-12-29T10:38:03;97220;;;10.0;77.7
27358;BME280;14831;50.474;7.616;2022-12-29T10:43:02;97210;;;9.8;78.3
27358;BME280;14831;50.474;7.616;2022-12-29T10:48:03;97220;;;9.7;79.3
27358;BME280;14831;50.474;7.616;2022-12-29T10:53:02;97230;;;9.8;79.8
27358;BME280;14831;50.474;7.616;2022-12-29T10:58:03;97230;;;9.8;79.5
27358;BME280;14831;50.474;7.616;2022-12-29T11:03:24;97240;;;9.8;79.8
27358;BME280;14831;50.474;7.616;2022-12-29T11:08:02;97220;;;9.8;79.4
27358;BME280;14831;50.474;7.616;2022-12-29T11:13:03;97230;;;9.8;80.1
27358;BME280;14831;50.474;7.616;2022-12-29T11:18:02;97230;;;9.7;80.3
27358;BME280;14831;50.474;7.616;2022-12-29T11:23:02;97220;;;9.8;79.2
27358;BME280;14831;50.474;7.616;2022-12-29T11:28:02;97240;;;9.8;79.2
27358;BME280;14831;50.474;7.616;2022-12-29T11:33:02;97240;;;9.8;77.6
27358;BME280;14831;50.474;7.616;2022-12-29T11:38:02;97250;;;9.8;75.2
27358;BME280;14831;50.474;7.616;2022-12-29T11:43:02;97250;;;9.8;75.8
27358;BME280;14831;50.474;7.616;2022-12-29T11:48:06;97250;;;9.8;74.9
27358;BME280;14831;50.474;7.616;2022-12-29T11:53:02;97270;;;9.8;72.6
27358;BME280;14831;50.474;7.616;2022-12-29T11:58:02;97260;;;9.8;72.9
27358;BME280;14831;50.474;7.616;2022-12-29T12:03:02;97270;;;10.0;71.7
27358;BME280;14831;50.474;7.616;2022-12-29T12:08:04;97280;;;9.9;71.0
27358;BME280;14831;50.474;7.616;2022-12-29T12:13:03;97280;;;9.9;72.1
27358;BME280;14831;50.474;7.616;2022-12-29T12:18:03;97270;;;9.8;70.7
27358;BME280;14831;50.474;7.616;2022-12-29T12:23:06;97270;;;9.8;72.0
27358;BME280;14831;50.474;7.616;2022-12-29T12:28:04;97270;;;9.8;72.4
27358;BME280;14831;50.474;7.616;2022-12-29T12:33:03;97270;;;9.7;72.5
27358;BME280;14831;50.474;7.616;2022-12-29T12:38:06;97270;;;9.7;72.6
27358;BME280;14831;50.474;7.616;2022-12-29T12:43:06;97270;;;9.7;73.1
27358;BME280;14831;50.474;7.616;2022-12-29T12:48:05;97290;;;9.6;72.9
27358;BME280;14831;50.474;7.616;2022-12-29T12:53:07;97290;;;9.5;71.8
27358;BME280;14831;50.474;7.616;2022-12-29T12:58:03;97280;;;9.5;71.9
27358;BME280;14831;50.474;7.616;2022-12-29T13:03:04;97290;;;9.5;71.7
27358;BME280;14831;50.474;7.616;2022-12-29T13:08:10;97300;;;9.5;71.8
27358;BME280;14831;50.474;7.616;2022-12-29T13:13:09;97290;;;9.4;70.7
27358;BME280;14831;50.474;7.616;2022-12-29T13:18:03;97290;;;9.5;71.6
27358;BME280;14831;50.474;7.616;2022-12-29T13:23:03;97300;;;9.5;71.5
27358;BME280;14831;50.474;7.616;2022-12-29T13:28:03;97270;;;9.6;70.0
27358;BME280;14831;50.474;7.616;2022-12-29T13:33:04;97290;;;9.7;69.3
27358;BME280;14831;50.474;7.616;2022-12-29T13:38:07;97300;;;9.7;69.1
27358;BME280;14831;50.474;7.616;2022-12-29T13:43:02;97310;;;9.8;69.0
27358;BME280;14831;50.474;7.616;2022-12-29T13:48:02;97280;;;10.0;67.6
27358;BME280;14831;50.474;7.616;2022-12-29T13:53:03;97300;;;9.9;66.9
27358;BME280;14831;50.474;7.616;2022-12-29T13:58:03;97310;;;9.7;66.9
27358;BME280;14831;50.474;7.616;2022-12-29T14:03:12;97310;;;9.8;66.1
27358;BME280;14831;50.474;7.616;2022-12-29T14:08:03;97310;;;9.8;66.1
27358;BME280;14831;50.474;7.616;2022-12-29T14:13:03;97310;;;9.8;66.3
27358;BME280;14831;50.474;7.616;2022-12-29T14:18:03;97320;;;9.8;67.3
27358;BME280;14831;50.474;7.616;2022-12-29T14:23:16;97320;;;9.7;65.8
27358;BME280;14831;50.474;7.616;2022-12-29T14:28:02;97310;;;9.5;66.7
27358;BME280;14831;50.474;7.616;2022-12-29T14:33:02;97320;;;9.3;68.2
27358;BME280;14831;50.474;7.616;2022-12-29T14:38:06;97340;;;9.4;68.2
27358;BME280;14831;50.474;7.616;2022-12-29T14:43:02;97350;;;9.3;67.2
27358;BME280;14831;50.474;7.616;2022-12-29T14:48:02;97340;;;9.2;67.6
27358;BME280;14831;50.474;7.616;2022-12-29T14:53:03;97340;;;9.0;67.4
27358;BME280;14831;50.474;7.616;2022-12-29T14:58:02;97330;;;8.9;68.3
27358;BME280;14831;50.474;7.616;2022-12-29T15:03:03;97340;;;8.9;67.8
27358;BME280;14831;50.474;7.616;2022-12-29T15:08:02;97350;;;8.9;68.3
27358;BME280;14831;50.474;7.616;2022-12-29T15:13:02;97350;;;8.8;67.9
27358;BME280;14831;50.474;7.616;2022-12-29T15:18:11;97340;;;8.7;66.7
27358;BME280;14831;50.474;7.616;2022-12-29T15:23:03;97350;;;8.6;66.8
27358;BME280;14831;50.474;7.616;2022-12-29T15:28:02;97350;;;8.5;66.0
27358;BME280;14831;50.474;7.616;2022-12-29T15:33:02;97350;;;8.4;66.2
27358;BME280;14831;50.474;7.616;2022-12-29T15:38:12;97360;;;8.3;66.6
27358;BME280;14831;50.474;7.616;2022-12-29T15:43:06;97360;;;8.1;67.9
27358;BME280;14831;50.474;7.616;2022-12-29T15:48:02;97350;;;8.0;68.4
27358;BME280;14831;50.474;7.616;2022-12-29T15:53:02;97360;;;7.9;69.5
27358;BME280;14831;50.474;7.616;2022-12-29T15:58:03;97370;;;7.9;69.6
27358;BME280;14831;50.474;7.616;2022-12-29T16:03:02;97370;;;7.9;69.9
27358;BME280;14831;50.474;7.616;2022-12-29T16:08:02;97380;;;7.8;70.1
27358;BME280;14831;50.474;7.616;2022-12-29T16:13:04;97370;;;7.7;71.0
27358;BME280;14831;50.474;7.616;2022-12-29T16:18:02;97380;;;7.7;71.6
27358;BME280;14831;50.474;7.616;2022-12-29T16:23:02;97390;;;7.7;72.2
27358;BME280;14831;50.474;7.616;2022-12-29T16:28:02;97390;;;7.8;72.3
27358;BME280;14831;50.474;7.616;2022-12-29T16:33:02;97400;;;7.6;72.7
27358;BME280;14831;50.474;7.616;2022-12-29T16:38:13;97400;;;7.5;73.2
27358;BME280;14831;50.474;7.616;2022-12-29T16:43:02;97420;;;7.5;73.0
27358;BME280;14831;50.474;7.616;2022-12-29T16:48:09;97400;;;7.4;73.1
27358;BME280;14831;50.474;7.616;2022-12-29T16:53:02;97410;;;7.4;72.9
27358;BME280;14831;50.474;7.616;2022-12-29T16:58:02;97420;;;7.5;72.7
27358;BME280;14831;50.474;7.616;2022-12-29T17:03:02;97430;;;7.5;73.1
27358;BME280;14831;50.474;7.616;2022-12-29T17:08:02;97430;;;7.5;72.9
27358;BME280;14831;50.474;7.616;2022-12-29T17:13:02;97430;;;7.4;74.0
27358;BME280;14831;50.474;7.616;2022-12-29T17:18:02;97430;;;7.4;74.7
27358;BME280;14831;50.474;7.616;2022-12-29T17:23:05;97430;;;7.4;74.7
27358;BME280;14831;50.474;7.616;2022-12-29T17:28:02;97440;;;7.4;75.1
27358;BME280;14831;50.474;7.616;2022-12-29T17:33:03;97430;;;7.4;74.9
27358;BME280;14831;50.474;7.616;2022-12-29T17:38:02;97440;;;7.3;75.2
27358;BME280;14831;50.474;7.616;2022-12-29T17:43:02;97450;;;7.2;75.3
27358;BME280;14831;50.474;7.616;2022-12-29T17:48:04;97450;;;7.2;75.4
27358;BME280;14831;50.474;7.616;2022-12-29T17:53:03;97450;;;7.1;75.4
27358;BME280;14831;50.474;7.616;2022-12-29T17:58:07;97450;;;7.0;75.7
27358;BME280;14831;50.474;7.616;2022-12-29T18:03:02;97470;;;6.9;76.5
27358;BME280;14831;50.474;7.616;2022-12-29T18:08:02;97470;;;6.9;76.6
27358;BME280;14831;50.474;7.616;2022-12-29T18:13:02;97470;;;6.7;77.4
27358;BME280;14831;50.474;7.616;2022-12-29T18:18:08;97480;;;6.6;77.7
27358;BME280;14831;50.474;7.616;2022-12-29T18:23:02;97490;;;6.5;78.2
27358;BME280;14831;50.474;7.616;2022-12-29T18:28:02;97500;;;6.4;78.9
27358;BME280;14831;50.474;7.616;2022-12-29T18:33:02;97500;;;6.5;79.0
27358;BME280;14831;50.474;7.616;2022-12-29T18:38:02;97490;;;6.4;79.2
27358;BME280;14831;50.474;7.616;2022-12-29T18:43:02;97490;;;6.5;79.1
27358;BME280;14831;50.474;7.616;2022-12-29T18:48:02;97490;;;6.4;79.5
27358;BME280;14831;50.474;7.616;2022-12-29T18:53:02;97500;;;6.4;79.8
27358;BME280;14831;50.474;7.616;2022-12-29T18:58:02;97500;;;6.3;80.4
27358;BME280;14831;50.474;7.616;2022-12-29T19:03:02;97500;;;6.3;80.7
27358;BME280;14831;50.474;7.616;2022-12-29T19:08:02;97500;;;6.2;81.1
27358;BME280;14831;50.474;7.616;2022-12-29T19:13:02;97500;;;6.2;81.3
27358;BME280;14831;50.474;7.616;2022-12-29T19:18:02;97500;;;6.3;81.5
27358;BME280;14831;50.474;7.616;2022-12-29T19:23:03;97520;;;6.3;81.5
27358;BME280;14831;50.474;7.616;2022-12-29T19:28:02;97520;;;6.3;81.4
27358;BME280;14831;50.474;7.616;2022-12-29T19:33:02;97510;;;6.3;81.4
27358;BME280;14831;50.474;7.616;2022-12-29T19:38:02;97510;;;6.3;81.4
27358;BME280;14831;50.474;7.616;2022-12-29T19:43:02;97510;;;6.3;81.4
27358;BME280;14831;50.474;7.616;2022-12-29T19:48:02;97520;;;6.2;81.8
27358;BME280;14831;50.474;7.616;2022-12-29T19:53:02;97530;;;6.2;82.0
27358;BME280;14831;50.474;7.616;2022-12-29T19:58:02;97530;;;6.2;81.8
27358;BME280;14831;50.474;7.616;2022-12-29T20:03:02;97540;;;6.2;81.8
27358;BME280;14831;50.474;7.616;2022-12-29T20:08:02;97530;;;6.3;82.0
27358;BME280;14831;50.474;7.616;2022-12-29T20:13:02;97530;;;6.3;82.0
27358;BME280;14831;50.474;7.616;2022-12-29T20:18:02;97550;;;6.3;82.2
27358;BME280;14831;50.474;7.616;2022-12-29T20:23:02;97560;;;6.3;82.5
27358;BME280;14831;50.474;7.616;2022-12-29T20:28:02;97560;;;6.3;82.7
27358;BME280;14831;50.474;7.616;2022-12-29T20:33:02;97570;;;6.2;83.1
27358;BME280;14831;50.474;7.616;2022-12-29T20:38:02;97570;;;6.3;83.2
27358;BME280;14831;50.474;7.616;2022-12-29T20:43:02;97570;;;6.3;83.2
27358;BME280;14831;50.474;7.616;2022-12-29T20:48:02;97560;;;6.3;83.1
27358;BME280;14831;50.474;7.616;2022-12-29T20:53:02;97570;;;6.3;83.4
27358;BME280;14831;50.474;7.616;2022-12-29T20:58:02;97580;;;6.2;83.4
27358;BME280;14831;50.474;7.616;2022-12-29T21:03:02;97570;;;6.2;83.9
27358;BME280;14831;50.474;7.616;2022-12-29T21:08:02;97570;;;6.1;84.1
27358;BME280;14831;50.474;7.616;2022-12-29T21:13:02;97590;;;6.0;84.5
27358;BME280;14831;50.474;7.616;2022-12-29T21:18:03;97590;;;6.0;84.6
27358;BME280;14831;50.474;7.616;2022-12-29T21:23:02;97610;;;6.0;84.8
27358;BME280;14831;50.474;7.616;2022-12-29T21:28:02;97620;;;5.9;85.0
27358;BME280;14831;50.474;7.616;2022-12-29T21:33:02;97620;;;5.9;85.1
27358;BME280;14831;50.474;7.616;2022-12-29T21:38:02;97620;;;5.9;85.2
27358;BME280;14831;50.474;7.616;2022-12-29T21:43:02;97630;;;6.0;84.9
27358;BME280;14831;50.474;7.616;2022-12-29T21:48:02;97620;;;6.0;84.5
27358;BME280;14831;50.474;7.616;2022-12-29T21:53:02;97630;;;6.1;83.9
27358;BME280;14831;50.474;7.616;2022-12-29T21:58:02;97620;;;6.1;83.4
27358;BME280;14831;50.474;7.616;2022-12-29T22:03:02;97630;;;6.1;82.8
27358;BME280;14831;50.474;7.616;2022-12-29T22:08:02;97630;;;6.1;83.0
27358;BME280;14831;50.474;7.616;2022-12-29T22:13:02;97640;;;6.1;82.8
27358;BME280;14831;50.474;7.616;2022-12-29T22:18:02;97660;;;6.1;82.2
27358;BME280;14831;50.474;7.616;2022-12-29T22:23:02;97660;;;6.0;81.8
27358;BME280;14831;50.474;7.616;2022-12-29T22:28:02;97670;;;6.0;81.6
27358;BME280;14831;50.474;7.616;2022-12-29T22:33:02;97670;;;6.0;81.5
27358;BME280;14831;50.474;7.616;2022-12-29T22:38:02;97660;;;5.9;81.7
27358;BME280;14831;50.474;7.616;2022-12-29T22:43:02;97660;;;5.8;81.8
27358;BME280;14831;50.474;7.616;2022-12-29T22:48:02;97670;;;5.7;81.6
27358;BME280;14831;50.474;7.616;2022-12-29T22:53:02;97670;;;5.6;81.9
27358;BME280;14831;50.474;7.616;2022-12-29T22:58:02;97680;;;5.6;81.3
27358;BME280;14831;50.474;7.616;2022-12-29T23:03:02;97690;;;5.5;81.8
27358;BME280;14831;50.474;7.616;2022-12-29T23:08:02;97680;;;5.4;82.8
27358;BME280;14831;50.474;7.616;2022-12-29T23:13:02;97680;;;5.3;83.8
27358;BME280;14831;50.474;7.616;2022-12-29T23:18:02;97680;;;5.3;85.0
27358;BME280;14831;50.474;7.616;2022-12-29T23:23:02;97680;;;5.2;86.5
27358;BME280;14831;50.474;7.616;2022-12-29T23:28:02;97680;;;5.3;87.4
27358;BME280;14831;50.474;7.616;2022-12-29T23:33:02;97680;;;5.3;87.6
27358;BME280;14831;50.474;7.616;2022-12-29T23:38:02;97680;;;5.3;87.8
27358;BME280;14831;50.474;7.616;2022-12-29T23:43:02;97670;;;5.2;88.1
27358;BME280;14831;50.474;7.616;2022-12-29T23:48:02;97670;;;5.2;88.2
27358;BME280;14831;50.474;7.616;2022-12-29T23:53:02;97680;;;5.1;88.5
27358;BME280;14831;50.474;7.616;2022-12-29T23:58:02;97680;;;5.0;89.1
